createdAt,value
2018-06-21T00:00:18.242Z,16.34
2018-06-21T00:01:18.133Z,16.37
2018-06-21T00:02:17.999Z,16.27
2018-06-21T00:03:17.873Z,16.20
2018-06-21T00:04:17.744Z,16.23
2018-06-21T00:05:17.700Z,16.22
2018-06-21T00:06:17.493Z,16.31
2018-06-21T00:07:17.485Z,16.33
2018-06-21T00:08:17.259Z,16.30
2018-06-21T00:09:17.249Z,16.23
2018-06-21T00:10:17.033Z,16.18
2018-06-21T00:11:16.908Z,16.16
2018-06-21T00:12:16.793Z,16.25
2018-06-21T00:13:16.626Z,16.16
2018-06-21T00:14:16.242Z,16.25
2018-06-21T00:15:16.120Z,16.22
2018-06-21T00:16:16.003Z,16.25
2018-06-21T00:17:15.880Z,16.23
2018-06-21T00:18:15.758Z,16.25
2018-06-21T00:19:15.640Z,16.18
2018-06-21T00:20:15.517Z,16.23
2018-06-21T00:21:15.398Z,16.27
2018-06-21T00:22:15.276Z,16.27
2018-06-21T00:23:15.158Z,16.27
2018-06-21T00:24:15.049Z,16.31
2018-06-21T00:25:14.916Z,16.34
2018-06-21T00:26:14.794Z,16.37
2018-06-21T00:27:14.674Z,16.33
2018-06-21T00:28:14.554Z,16.34
2018-06-21T00:29:14.440Z,16.42
2018-06-21T00:30:14.314Z,16.40
2018-06-21T00:31:14.194Z,16.42
2018-06-21T00:32:14.074Z,16.41
2018-06-21T00:33:13.957Z,16.40
2018-06-21T00:34:13.835Z,16.44
2018-06-21T00:35:13.717Z,16.45
2018-06-21T00:36:13.591Z,16.44
2018-06-21T00:37:13.470Z,16.45
2018-06-21T00:38:13.350Z,16.48
2018-06-21T00:39:13.255Z,16.49
2018-06-21T00:40:13.111Z,16.42
2018-06-21T00:41:12.991Z,16.45
2018-06-21T00:42:12.909Z,16.49
2018-06-21T00:43:12.747Z,16.50
2018-06-21T00:44:12.629Z,16.44
2018-06-21T00:45:12.512Z,16.44
2018-06-21T00:46:12.395Z,16.48
2018-06-21T00:47:12.307Z,16.45
2018-06-21T00:48:12.148Z,16.45
2018-06-21T00:49:12.024Z,16.41
2018-06-21T00:50:11.905Z,16.44
2018-06-21T00:51:11.788Z,16.40
2018-06-21T00:52:11.667Z,16.48
2018-06-21T00:53:11.549Z,16.52
2018-06-21T00:54:11.421Z,16.45
2018-06-21T00:55:11.303Z,16.45
2018-06-21T00:56:11.187Z,16.44
2018-06-21T00:57:11.066Z,16.45
2018-06-21T00:58:10.953Z,16.49
2018-06-21T00:59:10.830Z,16.48
2018-06-21T01:00:10.703Z,16.40
2018-06-21T01:01:10.580Z,16.48
2018-06-21T01:02:10.481Z,16.42
2018-06-21T01:03:10.337Z,16.41
2018-06-21T01:04:10.219Z,16.45
2018-06-21T01:05:10.099Z,16.40
2018-06-21T01:06:09.978Z,16.48
2018-06-21T01:07:09.864Z,16.42
2018-06-21T01:08:09.738Z,16.44
2018-06-21T01:09:09.615Z,16.50
2018-06-21T01:10:09.498Z,16.45
2018-06-21T01:11:09.374Z,16.41
2018-06-21T01:12:09.255Z,16.48
2018-06-21T01:13:09.137Z,16.52
2018-06-21T01:14:09.019Z,16.49
2018-06-21T01:15:08.893Z,16.41
2018-06-21T01:16:08.775Z,16.49
2018-06-21T01:17:08.655Z,16.45
2018-06-21T01:18:08.532Z,16.45
2018-06-21T01:19:08.416Z,16.41
2018-06-21T01:20:08.310Z,16.44
2018-06-21T01:21:08.179Z,16.38
2018-06-21T01:22:08.052Z,16.38
2018-06-21T01:23:07.934Z,16.35
2018-06-21T01:24:07.813Z,16.37
2018-06-21T01:25:07.693Z,16.31
2018-06-21T01:26:07.572Z,16.27
2018-06-21T01:27:07.449Z,16.33
2018-06-21T01:28:07.332Z,16.16
2018-06-21T01:29:07.216Z,16.20
2018-06-21T01:30:07.091Z,16.23
2018-06-21T01:31:06.972Z,16.23
2018-06-21T01:32:06.847Z,16.25
2018-06-21T01:33:06.731Z,16.23
2018-06-21T01:34:06.610Z,16.23
2018-06-21T01:35:06.502Z,16.23
2018-06-21T01:36:06.377Z,16.22
2018-06-21T01:37:06.248Z,16.14
2018-06-21T01:38:06.128Z,16.14
2018-06-21T01:39:06.006Z,16.00
2018-06-21T01:40:05.908Z,16.01
2018-06-21T01:41:05.770Z,15.97
2018-06-21T01:42:05.646Z,16.01
2018-06-21T01:43:05.526Z,16.12
2018-06-21T01:44:05.417Z,16.07
2018-06-21T01:45:05.288Z,16.09
2018-06-21T01:46:05.164Z,16.09
2018-06-21T01:47:05.045Z,16.03
2018-06-21T01:48:04.930Z,16.03
2018-06-21T01:49:04.802Z,16.11
2018-06-21T01:50:04.680Z,16.06
2018-06-21T01:51:04.559Z,15.99
2018-06-21T01:52:04.441Z,15.96
2018-06-21T01:53:04.320Z,16.04
2018-06-21T01:54:04.197Z,15.94
2018-06-21T01:55:04.079Z,15.97
2018-06-21T01:56:03.963Z,15.93
2018-06-21T01:57:03.890Z,15.89
2018-06-21T01:58:03.726Z,15.92
2018-06-21T01:59:03.596Z,15.85
2018-06-21T02:00:03.477Z,15.92
2018-06-21T02:01:03.352Z,15.84
2018-06-21T02:02:03.234Z,15.81
2018-06-21T02:03:03.117Z,15.88
2018-06-21T02:04:02.991Z,15.82
2018-06-21T02:05:02.873Z,15.81
2018-06-21T02:06:02.752Z,15.78
2018-06-21T02:07:02.629Z,15.82
2018-06-21T02:08:02.518Z,15.75
2018-06-21T02:09:02.389Z,15.79
2018-06-21T02:10:02.271Z,15.78
2018-06-21T02:11:02.155Z,15.68
2018-06-21T02:12:02.027Z,15.85
2018-06-21T02:13:01.909Z,15.85
2018-06-21T02:14:01.786Z,15.85
2018-06-21T02:15:01.668Z,15.89
2018-06-21T02:16:01.547Z,15.85
2018-06-21T02:17:01.426Z,15.88
2018-06-21T02:18:01.306Z,15.92
2018-06-21T02:19:01.183Z,15.84
2018-06-21T02:20:01.061Z,15.85
2018-06-21T02:21:00.942Z,15.75
2018-06-21T02:22:00.817Z,15.82
2018-06-21T02:23:00.698Z,15.76
2018-06-21T02:24:00.577Z,15.74
2018-06-21T02:25:00.457Z,15.74
2018-06-21T02:26:00.342Z,15.76
2018-06-21T02:27:00.217Z,15.72
2018-06-21T02:28:00.095Z,15.75
2018-06-21T02:28:59.975Z,15.72
2018-06-21T02:29:59.850Z,15.70
2018-06-21T02:30:59.730Z,15.72
2018-06-21T02:31:59.610Z,15.70
2018-06-21T02:32:59.490Z,15.74
2018-06-21T02:33:59.368Z,15.68
2018-06-21T02:34:59.250Z,15.64
2018-06-21T02:35:59.128Z,15.68
2018-06-21T02:36:59.006Z,15.68
2018-06-21T02:37:58.885Z,15.64
2018-06-21T02:38:58.763Z,15.66
2018-06-21T02:39:58.644Z,15.57
2018-06-21T02:40:58.523Z,15.57
2018-06-21T02:41:58.400Z,15.56
2018-06-21T02:42:58.285Z,15.63
2018-06-21T02:43:58.166Z,15.52
2018-06-21T02:44:58.039Z,15.54
2018-06-21T02:45:57.918Z,15.61
2018-06-21T02:46:57.800Z,15.54
2018-06-21T02:47:57.679Z,15.61
2018-06-21T02:48:57.556Z,15.46
2018-06-21T02:49:57.434Z,15.56
2018-06-21T02:50:57.314Z,15.41
2018-06-21T02:51:57.195Z,15.52
2018-06-21T02:52:57.072Z,15.42
2018-06-21T02:53:56.950Z,15.35
2018-06-21T02:54:56.827Z,15.28
2018-06-21T02:55:56.707Z,15.35
2018-06-21T02:56:56.586Z,15.27
2018-06-21T02:57:56.462Z,15.38
2018-06-21T02:58:56.341Z,15.31
2018-06-21T02:59:56.227Z,15.35
2018-06-21T03:00:56.103Z,15.24
2018-06-21T03:01:55.983Z,15.36
2018-06-21T03:02:55.860Z,15.30
2018-06-21T03:03:55.759Z,15.21
2018-06-21T03:04:55.620Z,15.24
2018-06-21T03:05:55.496Z,15.15
2018-06-21T03:06:55.375Z,15.20
2018-06-21T03:07:55.253Z,15.17
2018-06-21T03:08:55.131Z,15.19
2018-06-21T03:09:55.012Z,15.13
2018-06-21T03:10:54.889Z,15.20
2018-06-21T03:11:54.798Z,15.17
2018-06-21T03:12:54.648Z,15.20
2018-06-21T03:13:54.524Z,15.21
2018-06-21T03:14:54.405Z,15.24
2018-06-21T03:15:54.284Z,15.13
2018-06-21T03:16:54.164Z,15.06
2018-06-21T03:17:54.043Z,15.08
2018-06-21T03:18:53.946Z,15.09
2018-06-21T03:19:53.800Z,15.09
2018-06-21T03:20:53.676Z,15.11
2018-06-21T03:21:53.559Z,15.12
2018-06-21T03:22:53.438Z,15.12
2018-06-21T03:23:53.314Z,15.11
2018-06-21T03:24:53.193Z,15.12
2018-06-21T03:25:53.069Z,15.21
2018-06-21T03:26:52.949Z,15.12
2018-06-21T03:27:52.829Z,15.09
2018-06-21T03:28:52.709Z,15.12
2018-06-21T03:29:52.586Z,15.09
2018-06-21T03:30:52.468Z,15.08
2018-06-21T03:31:52.345Z,15.13
2018-06-21T03:32:52.223Z,15.12
2018-06-21T03:33:52.102Z,15.08
2018-06-21T03:34:51.981Z,15.02
2018-06-21T03:35:51.857Z,15.08
2018-06-21T03:36:51.784Z,15.11
2018-06-21T03:37:51.613Z,15.20
2018-06-21T03:38:51.501Z,15.19
2018-06-21T03:39:51.372Z,15.11
2018-06-21T03:40:51.249Z,15.03
2018-06-21T03:41:51.143Z,15.11
2018-06-21T03:42:51.007Z,15.11
2018-06-21T03:43:50.885Z,15.15
2018-06-21T03:44:50.769Z,15.17
2018-06-21T03:45:50.644Z,15.15
2018-06-21T03:46:50.526Z,15.13
2018-06-21T03:47:50.400Z,15.13
2018-06-21T03:48:50.288Z,15.09
2018-06-21T03:49:50.158Z,15.12
2018-06-21T03:50:50.034Z,15.03
2018-06-21T03:51:49.913Z,15.03
2018-06-21T03:52:49.793Z,15.03
2018-06-21T03:53:49.669Z,15.01
2018-06-21T03:54:49.550Z,15.01
2018-06-21T03:55:49.428Z,15.02
2018-06-21T03:56:49.306Z,15.01
2018-06-21T03:57:49.188Z,15.05
2018-06-21T03:58:49.101Z,14.99
2018-06-21T03:59:48.942Z,15.01
2018-06-21T04:00:48.823Z,15.03
2018-06-21T04:01:48.698Z,15.01
2018-06-21T04:02:48.580Z,15.03
2018-06-21T04:03:48.459Z,14.99
2018-06-21T04:04:48.350Z,15.09
2018-06-21T04:05:48.214Z,15.13
2018-06-21T04:06:48.093Z,15.02
2018-06-21T04:07:47.999Z,14.94
2018-06-21T04:08:47.848Z,15.06
2018-06-21T04:09:47.729Z,15.05
2018-06-21T04:10:47.609Z,15.01
2018-06-21T04:11:47.493Z,15.06
2018-06-21T04:12:47.419Z,14.98
2018-06-21T04:13:47.252Z,15.03
2018-06-21T04:14:47.122Z,15.05
2018-06-21T04:15:46.998Z,15.09
2018-06-21T04:16:46.889Z,15.15
2018-06-21T04:17:46.756Z,15.17
2018-06-21T04:18:46.638Z,15.13
2018-06-21T04:19:46.639Z,15.03
2018-06-21T04:20:46.710Z,15.06
2018-06-21T04:21:46.564Z,14.91
2018-06-21T04:22:46.497Z,14.91
2018-06-21T04:23:46.269Z,14.81
2018-06-21T04:24:46.095Z,14.75
2018-06-21T04:25:46.166Z,15.26
2018-06-21T04:26:45.877Z,15.33
2018-06-21T04:27:45.828Z,15.35
2018-06-21T04:28:45.423Z,15.33
2018-06-21T04:29:45.303Z,15.36
2018-06-21T04:30:45.182Z,15.28
2018-06-21T04:31:45.180Z,15.30
2018-06-21T04:32:44.937Z,15.36
2018-06-21T04:33:44.824Z,15.35
2018-06-21T04:34:44.693Z,15.52
2018-06-21T04:35:44.581Z,15.56
2018-06-21T04:36:45.453Z,15.54
2018-06-21T04:37:44.329Z,15.64
2018-06-21T04:38:44.213Z,15.68
2018-06-21T04:39:44.094Z,15.70
2018-06-21T04:40:43.964Z,15.60
2018-06-21T04:41:43.843Z,15.63
2018-06-21T04:42:43.722Z,15.38
2018-06-21T04:43:43.605Z,15.31
2018-06-21T04:44:43.481Z,15.28
2018-06-21T04:45:43.436Z,15.45
2018-06-21T04:46:44.187Z,15.42
2018-06-21T04:47:43.119Z,15.46
2018-06-21T04:48:51.096Z,15.59
2018-06-21T04:50:36.367Z,15.59
2018-06-21T04:51:35.850Z,15.72
2018-06-21T04:53:30.921Z,15.79
2018-06-21T04:54:30.744Z,15.79
2018-06-21T04:56:23.536Z,15.78
2018-06-21T04:57:23.379Z,15.68
2018-06-21T04:59:15.998Z,15.66
2018-06-21T05:00:16.488Z,15.54
2018-06-21T05:02:08.614Z,15.41
2018-06-21T05:03:08.417Z,15.43
2018-06-21T05:05:02.085Z,15.43
2018-06-21T05:06:01.906Z,15.43
2018-06-21T05:07:54.637Z,15.42
2018-06-21T05:08:54.443Z,15.48
2018-06-21T05:10:47.111Z,15.39
2018-06-21T05:11:46.679Z,15.42
2018-06-21T05:13:39.720Z,15.36
2018-06-21T05:14:39.522Z,15.42
2018-06-21T05:17:05.764Z,15.38
2018-06-21T05:18:05.312Z,15.41
2018-06-21T05:19:58.403Z,15.61
2018-06-21T05:20:58.137Z,15.54
2018-06-21T05:22:52.129Z,15.74
2018-06-21T05:23:50.728Z,15.75
2018-06-21T05:25:43.452Z,15.92
2018-06-21T05:26:42.943Z,15.94
2018-06-21T05:28:50.729Z,16.06
2018-06-21T05:29:50.595Z,16.11
2018-06-21T05:31:43.347Z,16.09
2018-06-21T05:32:43.172Z,16.12
2018-06-21T05:34:35.847Z,16.11
2018-06-21T05:35:35.714Z,16.22
2018-06-21T05:37:28.563Z,16.18
2018-06-21T05:38:28.268Z,16.18
2018-06-21T05:40:21.064Z,16.15
2018-06-21T05:41:20.846Z,16.33
2018-06-21T05:42:20.727Z,16.42
2018-06-21T05:43:20.604Z,16.45
2018-06-21T05:44:20.490Z,16.58
2018-06-21T05:45:20.366Z,16.63
2018-06-21T05:46:20.242Z,16.74
2018-06-21T05:47:20.126Z,16.80
2018-06-21T05:48:20.002Z,16.99
2018-06-21T05:49:19.884Z,17.22
2018-06-21T05:50:19.766Z,17.36
2018-06-21T05:51:19.647Z,17.63
2018-06-21T05:52:19.531Z,17.73
2018-06-21T05:53:19.401Z,17.76
2018-06-21T05:54:19.281Z,17.79
2018-06-21T05:55:19.159Z,18.00
2018-06-21T05:56:19.042Z,18.07
2018-06-21T05:57:18.924Z,18.06
2018-06-21T05:58:18.803Z,18.22
2018-06-21T05:59:18.681Z,18.19
2018-06-21T06:00:18.562Z,18.34
2018-06-21T06:01:18.442Z,18.33
2018-06-21T06:02:18.321Z,18.42
2018-06-21T06:03:18.201Z,18.37
2018-06-21T06:04:18.134Z,18.33
2018-06-21T06:05:17.962Z,18.09
2018-06-21T06:06:17.841Z,18.10
2018-06-21T06:07:17.723Z,18.34
2018-06-21T06:08:17.668Z,18.54
2018-06-21T06:09:17.487Z,18.43
2018-06-21T06:10:17.371Z,18.43
2018-06-21T06:11:17.243Z,18.55
2018-06-21T06:12:17.125Z,18.68
2018-06-21T06:13:17.008Z,18.90
2018-06-21T06:14:16.888Z,19.05
2018-06-21T06:15:16.770Z,18.99
2018-06-21T06:16:16.647Z,18.92
2018-06-21T06:17:16.532Z,19.02
2018-06-21T06:18:16.422Z,19.06
2018-06-21T06:19:16.296Z,19.05
2018-06-21T06:20:16.173Z,19.02
2018-06-21T06:21:16.056Z,19.31
2018-06-21T06:22:15.937Z,19.43
2018-06-21T06:23:15.817Z,19.57
2018-06-21T06:24:15.698Z,19.60
2018-06-21T06:25:15.583Z,19.79
2018-06-21T06:26:15.459Z,19.66
2018-06-21T06:27:15.341Z,19.63
2018-06-21T06:28:15.222Z,19.53
2018-06-21T06:29:15.107Z,19.53
2018-06-21T06:30:14.989Z,19.53
2018-06-21T06:31:14.873Z,19.61
2018-06-21T06:32:14.752Z,19.58
2018-06-21T06:33:14.633Z,19.70
2018-06-21T06:34:14.514Z,19.72
2018-06-21T06:35:14.395Z,19.72
2018-06-21T06:36:14.276Z,19.78
2018-06-21T06:37:14.158Z,19.87
2018-06-21T06:38:14.038Z,19.87
2018-06-21T06:39:13.948Z,19.91
2018-06-21T06:40:13.802Z,20.03
2018-06-21T06:41:13.685Z,20.08
2018-06-21T06:42:13.570Z,19.90
2018-06-21T06:43:13.473Z,20.05
2018-06-21T06:44:13.330Z,20.09
2018-06-21T06:45:13.210Z,20.30
2018-06-21T06:46:13.138Z,20.34
2018-06-21T06:47:12.972Z,20.34
2018-06-21T06:48:12.954Z,20.41
2018-06-21T06:49:12.740Z,20.35
2018-06-21T06:50:12.618Z,20.39
2018-06-21T06:51:12.502Z,20.41
2018-06-21T06:52:12.384Z,20.41
2018-06-21T06:53:12.270Z,20.42
2018-06-21T06:54:12.157Z,20.47
2018-06-21T06:55:12.028Z,20.58
2018-06-21T06:56:11.912Z,20.66
2018-06-21T06:57:11.792Z,20.79
2018-06-21T06:58:11.674Z,20.80
2018-06-21T06:59:11.557Z,20.90
2018-06-21T07:00:11.441Z,20.99
2018-06-21T07:01:11.320Z,21.13
2018-06-21T07:02:11.209Z,21.27
2018-06-21T07:03:11.090Z,21.27
2018-06-21T07:04:10.975Z,21.32
2018-06-21T07:05:10.854Z,21.39
2018-06-21T07:06:10.733Z,21.53
2018-06-21T07:07:10.616Z,21.63
2018-06-21T07:08:10.522Z,21.66
2018-06-21T07:09:10.379Z,21.64
2018-06-21T07:10:10.267Z,21.57
2018-06-21T07:11:10.145Z,21.57
2018-06-21T07:12:10.028Z,21.57
2018-06-21T07:13:09.912Z,21.41
2018-06-21T07:14:09.843Z,21.36
2018-06-21T07:15:09.676Z,21.39
2018-06-21T07:16:09.558Z,21.27
2018-06-21T07:17:09.445Z,21.04
2018-06-21T07:18:09.323Z,21.01
2018-06-21T07:19:09.207Z,21.01
2018-06-21T07:20:09.089Z,20.98
2018-06-21T07:21:08.975Z,20.81
2018-06-21T07:22:08.858Z,21.09
2018-06-21T07:23:08.739Z,21.35
2018-06-21T07:24:08.619Z,21.57
2018-06-21T07:25:08.503Z,21.69
2018-06-21T07:26:08.387Z,21.95
2018-06-21T07:27:08.310Z,22.02
2018-06-21T07:28:08.155Z,21.27
2018-06-21T07:29:08.037Z,20.79
2018-06-21T07:30:07.917Z,20.58
2018-06-21T07:31:07.799Z,20.84
2018-06-21T07:32:07.685Z,21.16
2018-06-21T07:33:07.569Z,21.29
2018-06-21T07:34:07.450Z,21.19
2018-06-21T07:35:07.337Z,21.27
2018-06-21T07:36:07.215Z,21.34
2018-06-21T07:37:07.099Z,21.17
2018-06-21T07:38:06.985Z,21.11
2018-06-21T07:39:06.871Z,21.20
2018-06-21T07:40:06.761Z,21.26
2018-06-21T07:41:06.634Z,21.20
2018-06-21T07:42:06.519Z,21.23
2018-06-21T07:43:06.398Z,21.34
2018-06-21T07:44:06.280Z,21.38
2018-06-21T07:45:06.165Z,21.51
2018-06-21T07:46:06.045Z,21.66
2018-06-21T07:47:05.926Z,21.74
2018-06-21T07:48:05.817Z,21.91
2018-06-21T07:49:05.697Z,21.85
2018-06-21T07:50:05.578Z,21.91
2018-06-21T07:51:05.461Z,21.97
2018-06-21T07:52:05.342Z,22.02
2018-06-21T07:53:05.227Z,22.02
2018-06-21T07:54:05.109Z,21.98
2018-06-21T07:55:04.992Z,21.95
2018-06-21T07:56:04.876Z,22.14
2018-06-21T07:57:04.761Z,22.14
2018-06-21T07:58:04.644Z,22.20
2018-06-21T07:59:04.586Z,22.35
2018-06-21T08:00:04.408Z,22.22
2018-06-21T08:01:04.296Z,22.13
2018-06-21T08:02:04.177Z,22.13
2018-06-21T08:03:04.058Z,22.16
2018-06-21T08:04:03.946Z,22.27
2018-06-21T08:05:03.831Z,22.44
2018-06-21T08:06:03.709Z,22.31
2018-06-21T08:07:03.594Z,22.34
2018-06-21T08:08:03.477Z,22.19
2018-06-21T08:09:03.358Z,22.28
2018-06-21T08:10:03.242Z,22.31
2018-06-21T08:11:03.126Z,22.29
2018-06-21T08:12:03.014Z,22.34
2018-06-21T08:13:02.983Z,22.54
2018-06-21T08:14:02.776Z,23.01
2018-06-21T08:15:02.665Z,23.15
2018-06-21T08:16:02.547Z,23.22
2018-06-21T08:17:02.432Z,23.23
2018-06-21T08:18:02.313Z,23.01
2018-06-21T08:19:02.205Z,23.12
2018-06-21T08:20:02.079Z,22.99
2018-06-21T08:21:01.963Z,22.74
2018-06-21T08:22:01.864Z,22.39
2018-06-21T08:23:01.734Z,22.43
2018-06-21T08:24:01.618Z,22.74
2018-06-21T08:25:01.501Z,23.01
2018-06-21T08:26:01.390Z,23.23
2018-06-21T08:27:01.270Z,23.43
2018-06-21T08:28:01.160Z,23.70
2018-06-21T08:29:01.044Z,23.85
2018-06-21T08:30:00.926Z,24.00
2018-06-21T08:31:00.807Z,24.05
2018-06-21T08:32:00.694Z,24.00
2018-06-21T08:33:00.581Z,23.57
2018-06-21T08:34:00.464Z,23.65
2018-06-21T08:35:00.349Z,23.80
2018-06-21T08:36:00.231Z,23.86
2018-06-21T08:37:00.120Z,23.79
2018-06-21T08:38:00.003Z,23.82
2018-06-21T08:38:59.958Z,23.75
2018-06-21T08:39:59.773Z,23.90
2018-06-21T08:40:59.657Z,24.17
2018-06-21T08:41:59.544Z,24.35
2018-06-21T08:42:59.427Z,24.27
2018-06-21T08:43:59.312Z,24.27
2018-06-21T08:44:59.199Z,24.49
2018-06-21T08:45:59.141Z,24.67
2018-06-21T08:46:58.969Z,24.94
2018-06-21T08:47:58.852Z,25.17
2018-06-21T08:48:58.739Z,25.39
2018-06-21T08:49:58.622Z,25.25
2018-06-21T08:50:58.507Z,24.90
2018-06-21T08:51:58.426Z,24.13
2018-06-21T08:52:58.278Z,23.64
2018-06-21T08:53:58.165Z,23.92
2018-06-21T08:54:58.048Z,23.67
2018-06-21T08:55:57.939Z,23.65
2018-06-21T08:56:57.828Z,24.00
2018-06-21T08:57:57.708Z,24.59
2018-06-21T08:58:57.593Z,24.97
2018-06-21T08:59:57.478Z,24.97
2018-06-21T09:00:57.366Z,25.25
2018-06-21T09:01:57.251Z,25.50
2018-06-21T09:02:57.135Z,25.44
2018-06-21T09:03:57.021Z,25.49
2018-06-21T09:04:56.907Z,25.49
2018-06-21T09:05:56.796Z,25.65
2018-06-21T09:06:56.679Z,25.71
2018-06-21T09:07:56.569Z,25.44
2018-06-21T09:08:56.450Z,25.37
2018-06-21T09:09:56.337Z,24.95
2018-06-21T09:10:56.224Z,25.07
2018-06-21T09:11:56.110Z,25.49
2018-06-21T09:12:55.996Z,25.72
2018-06-21T09:13:55.882Z,26.15
2018-06-21T09:14:55.770Z,26.12
2018-06-21T09:15:55.656Z,26.17
2018-06-21T09:16:55.539Z,25.99
2018-06-21T09:17:55.429Z,25.71
2018-06-21T09:18:55.315Z,25.39
2018-06-21T09:19:55.199Z,25.25
2018-06-21T09:20:55.091Z,25.15
2018-06-21T09:21:54.974Z,25.13
2018-06-21T09:22:54.861Z,24.85
2018-06-21T09:23:54.745Z,24.42
2018-06-21T09:24:54.633Z,24.31
2018-06-21T09:25:54.517Z,23.94
2018-06-21T09:26:54.403Z,23.90
2018-06-21T09:27:54.288Z,24.10
2018-06-21T09:28:54.174Z,24.34
2018-06-21T09:29:54.063Z,24.45
2018-06-21T09:30:53.947Z,24.68
2018-06-21T09:31:53.834Z,24.95
2018-06-21T09:32:53.719Z,25.01
2018-06-21T09:33:53.607Z,25.01
2018-06-21T09:34:53.491Z,25.07
2018-06-21T09:35:53.411Z,24.94
2018-06-21T09:36:53.263Z,24.75
2018-06-21T09:37:53.160Z,24.94
2018-06-21T09:38:53.037Z,25.07
2018-06-21T09:39:52.921Z,25.32
2018-06-21T09:40:52.808Z,25.54
2018-06-21T09:41:52.731Z,25.52
2018-06-21T09:42:52.578Z,25.59
2018-06-21T09:44:03.827Z,25.54
2018-06-21T09:44:52.349Z,25.44
2018-06-21T09:45:52.238Z,25.30
2018-06-21T09:46:52.125Z,25.34
2018-06-21T09:47:52.012Z,25.27
2018-06-21T09:48:51.940Z,25.44
2018-06-21T09:49:51.790Z,25.30
2018-06-21T09:50:51.666Z,25.07
2018-06-21T09:51:51.555Z,25.24
2018-06-21T09:52:51.438Z,24.98
2018-06-21T09:53:51.327Z,24.88
2018-06-21T09:54:51.208Z,24.75
2018-06-21T09:55:51.097Z,24.49
2018-06-21T09:56:50.995Z,24.37
2018-06-21T09:57:50.868Z,24.24
2018-06-21T09:58:50.757Z,23.97
2018-06-21T09:59:50.639Z,23.92
2018-06-21T10:00:50.526Z,23.97
2018-06-21T10:01:50.411Z,23.97
2018-06-21T10:02:50.298Z,23.97
2018-06-21T10:03:50.184Z,24.04
2018-06-21T10:04:50.072Z,23.95
2018-06-21T10:05:49.956Z,24.00
2018-06-21T10:06:49.839Z,23.92
2018-06-21T10:07:49.727Z,23.82
2018-06-21T10:08:49.610Z,23.85
2018-06-21T10:09:49.498Z,23.80
2018-06-21T10:10:49.383Z,23.71
2018-06-21T10:11:49.267Z,23.83
2018-06-21T10:12:49.154Z,23.77
2018-06-21T10:13:49.038Z,23.92
2018-06-21T10:14:48.923Z,23.89
2018-06-21T10:15:48.879Z,23.79
2018-06-21T10:16:48.692Z,24.00
2018-06-21T10:17:48.579Z,24.00
2018-06-21T10:18:48.465Z,24.05
2018-06-21T10:19:48.381Z,24.17
2018-06-21T10:20:48.235Z,24.39
2018-06-21T10:21:48.123Z,24.67
2018-06-21T10:22:48.006Z,24.83
2018-06-21T10:23:47.890Z,24.75
2018-06-21T10:24:47.778Z,24.67
2018-06-21T10:25:47.669Z,24.71
2018-06-21T10:26:47.548Z,24.76
2018-06-21T10:27:47.436Z,24.76
2018-06-21T10:28:47.321Z,24.76
2018-06-21T10:29:47.208Z,24.87
2018-06-21T10:30:47.093Z,24.88
2018-06-21T10:31:46.979Z,24.87
2018-06-21T10:32:46.867Z,24.97
2018-06-21T10:33:46.749Z,24.98
2018-06-21T10:34:46.637Z,24.82
2018-06-21T10:35:46.526Z,24.79
2018-06-21T10:36:46.411Z,24.97
2018-06-21T10:37:46.295Z,24.92
2018-06-21T10:38:46.179Z,24.98
2018-06-21T10:39:46.065Z,24.91
2018-06-21T10:40:45.954Z,24.50
2018-06-21T10:41:45.840Z,24.24
2018-06-21T10:42:45.733Z,24.20
2018-06-21T10:43:45.610Z,24.05
2018-06-21T10:44:45.496Z,23.80
2018-06-21T10:45:45.384Z,23.97
2018-06-21T10:46:45.267Z,24.22
2018-06-21T10:47:45.158Z,24.35
2018-06-21T10:48:45.046Z,24.61
2018-06-21T10:49:44.928Z,24.94
2018-06-21T10:50:44.814Z,25.00
2018-06-21T10:51:44.699Z,25.20
2018-06-21T10:52:44.590Z,25.30
2018-06-21T10:53:44.471Z,25.50
2018-06-21T10:54:44.357Z,25.59
2018-06-21T10:55:44.244Z,25.74
2018-06-21T10:56:44.131Z,25.64
2018-06-21T10:57:44.019Z,25.61
2018-06-21T10:58:43.903Z,25.54
2018-06-21T10:59:43.792Z,25.91
2018-06-21T11:00:43.684Z,26.42
2018-06-21T11:01:43.568Z,26.72
2018-06-21T11:02:43.455Z,26.92
2018-06-21T11:03:43.341Z,27.16
2018-06-21T11:04:43.231Z,27.32
2018-06-21T11:05:43.117Z,27.46
2018-06-21T11:06:43.005Z,27.70
2018-06-21T11:07:42.892Z,27.89
2018-06-21T11:08:42.786Z,28.01
2018-06-21T11:09:42.675Z,27.91
2018-06-21T11:10:42.555Z,27.74
2018-06-21T11:11:42.446Z,27.47
2018-06-21T11:12:42.334Z,27.42
2018-06-21T11:13:42.226Z,27.13
2018-06-21T11:14:42.122Z,26.98
2018-06-21T11:15:42.000Z,27.31
2018-06-21T11:16:41.889Z,27.41
2018-06-21T11:17:41.778Z,27.41
2018-06-21T11:18:41.668Z,27.59
2018-06-21T11:19:41.573Z,27.85
2018-06-21T11:20:41.444Z,27.96
2018-06-21T11:21:41.332Z,27.99
2018-06-21T11:22:41.222Z,28.31
2018-06-21T11:23:41.112Z,28.48
2018-06-21T11:24:40.999Z,28.51
2018-06-21T11:25:40.889Z,28.84
2018-06-21T11:26:40.777Z,28.85
2018-06-21T11:27:40.709Z,28.38
2018-06-21T11:28:40.571Z,28.23
2018-06-21T11:29:40.445Z,28.31
2018-06-21T11:30:40.334Z,28.51
2018-06-21T11:31:40.225Z,28.82
2018-06-21T11:32:40.112Z,29.11
2018-06-21T11:33:40.004Z,29.11
2018-06-21T11:34:39.895Z,29.53
2018-06-21T11:35:39.783Z,29.53
2018-06-21T11:36:39.673Z,28.90
2018-06-21T11:37:39.565Z,28.97
2018-06-21T11:38:39.450Z,29.56
2018-06-21T11:39:39.339Z,29.87
2018-06-21T11:40:39.232Z,29.66
2018-06-21T11:41:39.122Z,29.74
2018-06-21T11:42:39.013Z,30.30
2018-06-21T11:43:38.901Z,29.68
2018-06-21T11:44:38.791Z,28.59
2018-06-21T11:45:38.683Z,28.35
2018-06-21T11:46:38.609Z,27.84
2018-06-21T11:47:38.465Z,27.51
2018-06-21T11:48:38.351Z,27.43
2018-06-21T11:49:38.246Z,28.22
2018-06-21T11:50:38.129Z,28.93
2018-06-21T11:51:38.021Z,29.50
2018-06-21T11:52:37.912Z,29.29
2018-06-21T11:53:37.809Z,27.82
2018-06-21T11:54:37.690Z,28.26
2018-06-21T11:55:37.582Z,29.07
2018-06-21T11:56:37.473Z,29.23
2018-06-21T11:57:37.359Z,28.48
2018-06-21T11:58:37.247Z,28.28
2018-06-21T11:59:37.138Z,27.73
2018-06-21T12:00:37.030Z,27.38
2018-06-21T12:01:36.922Z,27.06
2018-06-21T12:02:36.808Z,27.09
2018-06-21T12:03:36.699Z,27.59
2018-06-21T12:04:36.584Z,28.38
2018-06-21T12:05:36.478Z,28.07
2018-06-21T12:06:36.365Z,27.94
2018-06-21T12:07:36.252Z,27.80
2018-06-21T12:08:36.151Z,27.76
2018-06-21T12:09:36.033Z,27.41
2018-06-21T12:10:35.920Z,27.13
2018-06-21T12:11:35.811Z,26.79
2018-06-21T12:12:35.698Z,26.50
2018-06-21T12:13:35.585Z,26.35
2018-06-21T12:14:35.477Z,26.22
2018-06-21T12:15:35.364Z,25.98
2018-06-21T12:16:35.254Z,25.94
2018-06-21T12:17:35.141Z,25.77
2018-06-21T12:18:35.028Z,25.64
2018-06-21T12:19:34.915Z,25.53
2018-06-21T12:20:34.804Z,25.62
2018-06-21T12:21:34.692Z,25.54
2018-06-21T12:22:34.578Z,25.47
2018-06-21T12:23:34.469Z,25.46
2018-06-21T12:24:34.354Z,25.34
2018-06-21T12:25:34.244Z,25.30
2018-06-21T12:26:34.129Z,25.30
2018-06-21T12:27:34.017Z,25.27
2018-06-21T12:28:33.904Z,25.24
2018-06-21T12:29:33.792Z,25.32
2018-06-21T12:30:33.677Z,25.34
2018-06-21T12:31:33.568Z,25.97
2018-06-21T12:32:33.450Z,27.06
2018-06-21T12:33:33.338Z,27.70
2018-06-21T12:34:33.225Z,27.11
2018-06-21T12:35:33.111Z,26.69
2018-06-21T12:36:33.000Z,26.62
2018-06-21T12:37:32.887Z,26.54
2018-06-21T12:38:32.771Z,27.95
2018-06-21T12:39:32.659Z,29.38
2018-06-21T12:40:32.548Z,30.33
2018-06-21T12:41:32.436Z,31.36
2018-06-21T12:42:32.326Z,30.27
2018-06-21T12:43:32.217Z,29.50
2018-06-21T12:44:32.106Z,28.60
2018-06-21T12:45:31.991Z,28.07
2018-06-21T12:46:31.880Z,27.74
2018-06-21T12:47:31.769Z,27.43
2018-06-21T12:48:31.654Z,27.32
2018-06-21T12:49:31.543Z,27.19
2018-06-21T12:50:31.433Z,27.10
2018-06-21T12:51:31.322Z,26.80
2018-06-21T12:52:31.286Z,26.74
2018-06-21T12:53:31.100Z,26.57
2018-06-21T12:54:30.990Z,26.46
2018-06-21T12:55:30.876Z,26.37
2018-06-21T12:56:30.763Z,26.37
2018-06-21T12:57:30.651Z,26.21
2018-06-21T12:58:30.537Z,25.99
2018-06-21T12:59:30.427Z,25.83
2018-06-21T13:00:30.315Z,25.72
2018-06-21T13:01:30.204Z,25.42
2018-06-21T13:02:30.092Z,25.28
2018-06-21T13:03:29.979Z,25.31
2018-06-21T13:04:29.868Z,25.20
2018-06-21T13:05:29.820Z,25.22
2018-06-21T13:06:29.641Z,25.31
2018-06-21T13:07:29.529Z,25.25